Time;durP1;ratioP1;P1;durP2;ratioP2;P2;SDS_P1;SDS_P2;PMS_P1;PMS_P2;Temp;Humidity;BMP_temperature;BMP_pressure;BME280_temperature;BME280_humidity;BME280_pressure;Samples;Min_cycle;Max_cycle;Signal;HPM_P1;HPM_P2
2021/12/24 00:01:22;;;;;;;26.38;21.85;;;9.10;96.70;;;;;;4964964;28;20053;-72
2021/12/24 00:03:51;;;;;;;24.90;20.27;;;9.10;96.70;;;;;;4957716;28;20054;-72
2021/12/24 00:06:20;;;;;;;25.42;20.83;;;9.10;96.70;;;;;;4966897;28;20046;-72
2021/12/24 00:08:48;;;;;;;23.88;19.65;;;9.10;96.70;;;;;;4978928;28;20208;-72
2021/12/24 00:11:18;;;;;;;25.17;21.17;;;9.10;96.70;;;;;;4963477;28;20408;-72
2021/12/24 00:13:49;;;;;;;27.60;21.58;;;9.10;96.70;;;;;;4975816;28;20046;-72
2021/12/24 00:16:24;;;;;;;26.08;20.33;;;9.10;96.70;;;;;;4983199;28;20067;-72
2021/12/24 00:19:00;;;;;;;25.90;21.23;;;9.10;96.70;;;;;;4964476;28;20051;-72
2021/12/24 00:35:31;;;;;;;24.85;18.95;;;9.20;96.70;;;;;;4965590;28;20054;-72
2021/12/24 00:38:03;;;;;;;24.38;18.50;;;9.20;96.70;;;;;;4975613;28;20121;-72
2021/12/24 00:40:35;;;;;;;23.55;19.58;;;9.20;96.70;;;;;;4941718;28;20078;-72
2021/12/24 00:43:05;;;;;;;25.25;20.48;;;9.20;96.70;;;;;;4964992;28;20038;-72
2021/12/24 00:45:36;;;;;;;25.60;20.40;;;9.10;96.70;;;;;;4956481;28;20046;-72
2021/12/24 00:48:06;;;;;;;22.17;18.65;;;9.10;96.70;;;;;;4967109;28;20039;-72
2021/12/24 00:56:01;;;;;;;26.33;20.58;;;9.10;96.70;;;;;;4979037;28;20053;-72
2021/12/24 00:58:31;;;;;;;25.02;21.00;;;9.10;96.70;;;;;;4975165;28;20038;-72
2021/12/24 01:01:00;;;;;;;22.90;20.25;;;9.10;96.70;;;;;;4977175;28;20279;-73
2021/12/24 01:03:28;;;;;;;25.77;20.85;;;9.10;96.70;;;;;;4972129;28;20146;-72
2021/12/24 01:05:57;;;;;;;25.77;20.02;;;9.00;96.70;;;;;;4965131;28;20080;-72
2021/12/24 01:08:26;;;;;;;26.00;21.10;;;9.00;96.70;;;;;;4949382;28;20046;-72
2021/12/24 01:11:00;;;;;;;23.80;20.38;;;9.00;96.70;;;;;;4952854;28;20050;-72
2021/12/24 01:13:31;;;;;;;25.83;20.85;;;9.00;96.70;;;;;;4957333;28;20050;-72
2021/12/24 01:16:08;;;;;;;24.98;19.83;;;9.00;96.70;;;;;;4976751;28;20109;-72
2021/12/24 01:26:16;;;;;;;24.13;19.98;;;9.00;96.70;;;;;;4964857;28;20054;-72
2021/12/24 01:29:09;;;;;;;27.90;20.83;;;9.00;96.70;;;;;;4964923;28;20137;-72
2021/12/24 01:40:20;;;;;;;23.25;19.27;;;9.10;96.70;;;;;;4974659;28;20448;-72
2021/12/24 01:42:50;;;;;;;24.27;19.83;;;9.00;96.70;;;;;;4956709;28;20496;-72
2021/12/24 01:45:25;;;;;;;23.00;19.73;;;9.00;96.70;;;;;;4965704;28;20600;-72
2021/12/24 01:47:55;;;;;;;24.92;19.95;;;9.00;96.70;;;;;;4958573;28;20053;-72
2021/12/24 01:50:27;;;;;;;24.80;19.73;;;9.10;96.70;;;;;;4965517;28;20046;-73
2021/12/24 01:52:57;;;;;;;22.98;20.35;;;9.10;96.70;;;;;;4958999;28;20042;-72
2021/12/24 01:55:28;;;;;;;23.25;18.60;;;9.10;96.70;;;;;;4956643;28;20469;-72
2021/12/24 01:57:57;;;;;;;23.98;20.10;;;9.10;96.70;;;;;;4964561;28;20050;-72
2021/12/24 02:00:30;;;;;;;23.35;19.02;;;9.10;96.70;;;;;;4961607;28;20046;-72
2021/12/24 02:02:59;;;;;;;25.85;19.88;;;9.20;96.70;;;;;;4956447;28;20625;-73
2021/12/24 02:05:29;;;;;;;23.30;19.58;;;9.20;96.70;;;;;;4961637;28;20201;-73
2021/12/24 02:07:59;;;;;;;21.42;18.58;;;9.20;96.70;;;;;;4966154;28;20643;-73
2021/12/24 02:10:28;;;;;;;23.77;19.02;;;9.20;96.70;;;;;;4979525;28;20125;-73
2021/12/24 02:12:56;;;;;;;23.85;18.25;;;9.20;96.70;;;;;;4947434;28;20048;-73
2021/12/24 02:29:43;;;;;;;;;;;9.20;96.70;;;;;;4978176;28;20061;-73
2021/12/24 02:32:11;;;;;;;23.10;18.25;;;9.20;96.70;;;;;;4979936;28;19930;-73
2021/12/24 02:34:43;;;;;;;23.13;17.75;;;9.20;96.70;;;;;;4959314;28;20042;-73
2021/12/24 02:37:13;;;;;;;22.75;17.92;;;9.20;96.70;;;;;;4938298;28;20504;-73
2021/12/24 02:39:42;;;;;;;23.15;18.38;;;9.20;96.70;;;;;;4962616;28;20143;-72
2021/12/24 02:42:16;;;;;;;23.05;18.80;;;9.20;96.70;;;;;;4959353;28;20101;-72
2021/12/24 02:44:46;;;;;;;22.05;17.75;;;9.20;96.70;;;;;;4973503;28;20651;-72
2021/12/24 02:55:08;;;;;;;21.45;16.55;;;9.30;96.70;;;;;;4961866;28;20077;-73
2021/12/24 02:57:39;;;;;;;19.73;15.77;;;9.40;96.70;;;;;;4964918;28;20085;-73
2021/12/24 03:00:20;;;;;;;18.50;15.80;;;9.40;96.70;;;;;;4963116;28;20126;-72
2021/12/24 03:02:49;;;;;;;21.95;16.83;;;9.40;96.70;;;;;;4983740;28;20054;-72
2021/12/24 03:05:20;;;;;;;22.05;17.40;;;9.40;96.70;;;;;;4983696;28;20046;-72
2021/12/24 03:07:51;;;;;;;18.67;16.55;;;9.40;96.70;;;;;;4995439;28;20074;-72
2021/12/24 03:10:21;;;;;;;21.75;16.63;;;9.40;96.70;;;;;;4982662;28;20149;-72
2021/12/24 03:12:52;;;;;;;21.85;17.35;;;9.40;96.70;;;;;;4981092;28;20053;-72
2021/12/24 03:15:25;;;;;;;20.05;16.98;;;9.40;96.70;;;;;;4958385;28;20084;-72
2021/12/24 03:17:59;;;;;;;21.45;17.80;;;9.40;96.70;;;;;;4938639;28;20054;-72
2021/12/24 03:20:33;;;;;;;21.15;16.55;;;9.40;96.70;;;;;;4938851;28;20079;-72
2021/12/24 03:23:21;;;;;;;18.92;16.63;;;9.40;96.70;;;;;;4946453;28;20051;-72
2021/12/24 03:25:49;;;;;;;19.48;16.80;;;9.40;96.70;;;;;;4942655;28;20074;-72
2021/12/24 03:28:18;;;;;;;17.90;15.30;;;9.40;96.70;;;;;;4953593;28;20454;-72
2021/12/24 03:30:46;;;;;;;22.67;17.10;;;9.40;96.70;;;;;;4952162;28;20465;-71
2021/12/24 03:33:15;;;;;;;20.77;16.48;;;9.40;96.70;;;;;;4946608;28;20153;-72
2021/12/24 03:35:46;;;;;;;18.85;15.85;;;9.40;96.70;;;;;;4946012;28;20042;-72
2021/12/24 03:38:17;;;;;;;21.15;16.95;;;9.40;96.70;;;;;;4941941;28;20417;-72
2021/12/24 03:40:45;;;;;;;18.23;15.48;;;9.50;96.70;;;;;;4942937;28;20133;-72
2021/12/24 03:43:14;;;;;;;19.33;15.80;;;9.50;96.70;;;;;;4954790;28;20118;-72
2021/12/24 03:45:59;;;;;;;18.60;16.60;;;9.50;96.70;;;;;;4951812;28;20054;-72
2021/12/24 03:48:49;;;;;;;21.50;16.70;;;9.40;96.70;;;;;;4996591;28;20477;-72
2021/12/24 03:51:31;;;;;;;20.70;15.75;;;9.40;96.70;;;;;;4981222;28;20061;-72
2021/12/24 03:56:49;;;;;;;19.20;16.05;;;9.40;96.70;;;;;;4987773;28;20586;-72
2021/12/24 03:59:41;;;;;;;16.65;14.85;;;9.50;96.70;;;;;;4998194;28;20045;-73
2021/12/24 04:02:28;;;;;;;18.52;15.48;;;9.50;96.70;;;;;;4999747;28;20053;-73
2021/12/24 04:05:23;;;;;;;18.42;15.82;;;9.50;96.70;;;;;;4975083;28;20190;-72
2021/12/24 04:08:24;;;;;;;18.10;15.88;;;9.50;96.70;;;;;;4976414;28;20084;-73
2021/12/24 04:11:06;;;;;;;20.13;15.70;;;9.50;96.70;;;;;;4979761;28;20168;-73
2021/12/24 04:13:39;;;;;;;17.25;14.80;;;9.50;96.70;;;;;;4986200;28;20309;-73
2021/12/24 04:16:09;;;;;;;17.77;14.63;;;9.50;96.70;;;;;;5001305;28;20037;-73
2021/12/24 04:27:01;;;;;;;17.17;14.43;;;9.60;96.70;;;;;;4986389;28;20050;-72
2021/12/24 04:29:33;;;;;;;18.55;15.70;;;9.60;96.70;;;;;;4969441;28;20050;-73
2021/12/24 04:32:12;;;;;;;18.08;16.00;;;9.60;96.70;;;;;;4979389;28;20054;-73
2021/12/24 04:35:18;;;;;;;20.20;15.13;;;9.60;96.70;;;;;;4981874;28;20057;-73
2021/12/24 04:51:56;;;;;;;17.67;13.65;;;9.70;96.70;;;;;;4977843;28;20081;-72
2021/12/24 05:02:59;;;;;;;14.95;11.90;;;9.80;96.70;;;;;;4981752;28;20054;-72
2021/12/24 05:05:54;;;;;;;12.93;11.37;;;9.80;96.70;;;;;;4978984;28;20058;-73
2021/12/24 05:08:22;;;;;;;14.73;12.13;;;9.90;96.70;;;;;;4977371;28;20425;-72
2021/12/24 05:10:51;;;;;;;13.45;12.05;;;9.90;96.70;;;;;;4994849;28;20053;-72
2021/12/24 05:13:23;;;;;;;15.05;12.38;;;9.90;96.70;;;;;;4972074;28;20422;-73
2021/12/24 05:16:27;;;;;;;38.83;21.95;;;9.90;96.70;;;;;;4979057;28;20053;-73
2021/12/24 05:21:59;;;;;;;15.10;12.85;;;10.00;96.70;;;;;;4994605;28;20176;-73
2021/12/24 05:24:32;;;;;;;15.40;12.35;;;10.00;96.70;;;;;;4982455;28;20042;-73
2021/12/24 05:27:04;;;;;;;17.65;12.88;;;10.00;96.70;;;;;;4975803;28;20042;-73
2021/12/24 05:29:33;;;;;;;15.63;13.30;;;10.00;96.70;;;;;;4988503;28;20316;-73
2021/12/24 05:32:04;;;;;;;21.63;16.00;;;10.00;96.70;;;;;;4981399;28;20050;-73
2021/12/24 05:34:34;;;;;;;18.73;14.80;;;10.00;96.70;;;;;;4997568;28;20048;-72
2021/12/24 05:37:02;;;;;;;14.05;10.80;;;10.10;96.70;;;;;;4981036;28;20058;-73
2021/12/24 05:39:31;;;;;;;12.88;10.82;;;10.10;96.70;;;;;;4981798;28;20119;-73
2021/12/24 05:41:59;;;;;;;11.43;10.23;;;10.20;96.70;;;;;;4974921;28;20039;-73
2021/12/24 05:44:29;;;;;;;11.38;10.07;;;10.30;96.70;;;;;;4978070;28;20393;-72
2021/12/24 05:47:27;;;;;;;13.40;9.82;;;10.30;96.70;;;;;;4985067;28;20086;-73
2021/12/24 05:50:00;;;;;;;11.85;9.00;;;10.40;96.70;;;;;;4992525;28;20049;-73
2021/12/24 05:52:52;;;;;;;9.07;7.15;;;10.50;96.70;;;;;;4955839;28;20412;-73
2021/12/24 05:55:49;;;;;;;7.05;5.78;;;10.70;96.70;;;;;;4977934;28;20085;-73
2021/12/24 05:58:22;;;;;;;5.40;2.80;;;10.80;96.70;;;;;;4978711;28;20577;-73
2021/12/24 06:00:51;;;;;;;5.25;2.10;;;11.00;96.70;;;;;;4983092;28;20088;-73
2021/12/24 06:03:27;;;;;;;5.30;2.35;;;11.30;96.70;;;;;;4981490;28;20077;-72
2021/12/24 06:05:57;;;;;;;3.70;1.95;;;11.40;96.70;;;;;;4979616;28;20055;-73
2021/12/24 06:08:26;;;;;;;4.72;2.47;;;11.40;96.70;;;;;;4990944;28;20045;-73
2021/12/24 06:10:55;;;;;;;4.75;2.35;;;11.40;96.70;;;;;;5000005;28;20121;-73
2021/12/24 06:13:25;;;;;;;6.63;2.05;;;11.50;96.70;;;;;;4991759;28;20054;-72
2021/12/24 06:15:53;;;;;;;2.63;1.67;;;11.60;96.70;;;;;;4979567;28;20077;-73
2021/12/24 06:18:25;;;;;;;3.20;1.90;;;11.60;96.70;;;;;;4974264;28;20481;-73
2021/12/24 06:21:00;;;;;;;3.42;2.10;;;11.60;96.70;;;;;;4984413;28;20578;-72
2021/12/24 06:23:30;;;;;;;3.38;2.33;;;11.60;96.70;;;;;;4995868;28;20400;-73
2021/12/24 06:25:59;;;;;;;4.65;2.53;;;11.60;96.70;;;;;;5001022;28;20034;-73
2021/12/24 06:28:28;;;;;;;4.43;2.17;;;11.60;96.70;;;;;;4958520;28;20048;-73
2021/12/24 06:30:56;;;;;;;4.47;2.17;;;11.60;96.70;;;;;;4996844;28;20050;-73
2021/12/24 06:33:26;;;;;;;4.28;2.20;;;11.60;96.70;;;;;;4976771;28;20046;-73
2021/12/24 06:35:57;;;;;;;4.18;1.80;;;11.60;96.70;;;;;;4997324;28;20117;-73
2021/12/24 06:38:25;;;;;;;4.20;2.35;;;11.60;96.70;;;;;;4984150;28;20065;-73
2021/12/24 06:40:54;;;;;;;7.43;3.13;;;11.60;96.70;;;;;;4975855;28;20049;-73
2021/12/24 06:43:22;;;;;;;5.30;3.33;;;11.60;96.70;;;;;;4997073;28;20066;-73
2021/12/24 06:45:51;;;;;;;8.10;3.30;;;11.60;96.70;;;;;;4977084;28;20076;-73
2021/12/24 06:48:19;;;;;;;6.72;2.97;;;11.60;96.70;;;;;;4995357;28;20036;-73
2021/12/24 06:50:47;;;;;;;57.53;42.72;;;11.70;96.70;;;;;;4993014;28;20546;-73
2021/12/24 06:53:17;;;;;;;58.40;44.28;;;11.60;96.70;;;;;;4974659;28;20136;-73
2021/12/24 06:55:47;;;;;;;17.60;15.77;;;11.70;96.70;;;;;;4974646;28;20483;-73
2021/12/24 06:58:15;;;;;;;8.25;5.47;;;11.70;96.70;;;;;;4982068;28;20043;-75
2021/12/24 07:00:45;;;;;;;20.92;17.33;;;11.70;96.70;;;;;;4974860;28;20064;-74
2021/12/24 07:03:15;;;;;;;32.65;23.60;;;11.70;96.70;;;;;;4979439;28;20049;-73
2021/12/24 07:05:43;;;;;;;8.75;5.68;;;11.70;96.70;;;;;;4973062;28;20061;-73
2021/12/24 07:08:11;;;;;;;8.85;5.38;;;11.70;96.70;;;;;;4980678;28;20046;-73
2021/12/24 07:10:41;;;;;;;6.22;3.42;;;11.70;96.70;;;;;;4977298;28;20121;-74
2021/12/24 07:13:10;;;;;;;5.82;3.53;;;11.70;96.70;;;;;;4974173;28;20047;-73
2021/12/24 07:15:38;;;;;;;5.63;2.92;;;11.80;96.70;;;;;;4971444;28;20121;-74
2021/12/24 07:18:07;;;;;;;15.65;10.48;;;11.80;96.70;;;;;;4974439;28;20078;-74
2021/12/24 07:20:35;;;;;;;7.57;3.85;;;11.80;96.70;;;;;;4975879;28;20132;-73
2021/12/24 07:23:04;;;;;;;11.65;9.07;;;11.80;96.70;;;;;;4981793;28;20415;-73
2021/12/24 07:25:32;;;;;;;10.73;5.53;;;11.90;96.70;;;;;;4978158;28;20042;-73
2021/12/24 07:28:02;;;;;;;10.35;5.38;;;11.90;96.70;;;;;;4983640;28;20038;-73
2021/12/24 07:30:31;;;;;;;13.18;7.72;;;11.90;96.70;;;;;;4964694;28;20046;-73
2021/12/24 07:33:01;;;;;;;11.18;5.82;;;11.90;96.70;;;;;;5000783;28;20052;-73
2021/12/24 07:35:29;;;;;;;11.45;5.57;;;11.90;96.70;;;;;;4972933;28;20101;-73
2021/12/24 07:37:57;;;;;;;10.93;4.88;;;11.90;96.70;;;;;;4977380;28;20054;-73
2021/12/24 07:40:26;;;;;;;22.17;14.35;;;12.00;96.70;;;;;;4971528;28;20046;-74
2021/12/24 07:42:55;;;;;;;11.30;9.85;;;12.00;96.70;;;;;;4985205;28;20385;-75
2021/12/24 07:45:25;;;;;;;11.40;8.98;;;12.10;96.70;;;;;;4978176;28;20044;-73
2021/12/24 07:48:14;;;;;;;9.63;8.63;;;12.10;96.70;;;;;;4978025;28;20050;-72
2021/12/24 07:53:15;;;;;;;7.05;5.43;;;12.20;96.70;;;;;;4981740;28;20405;-73
2021/12/24 07:55:44;;;;;;;8.73;5.20;;;12.10;96.70;;;;;;4984691;28;20073;-73
2021/12/24 07:58:14;;;;;;;6.65;4.75;;;12.10;96.70;;;;;;4982047;28;20117;-73
2021/12/24 08:00:45;;;;;;;11.63;6.70;;;12.10;96.70;;;;;;4990103;28;20042;-73
2021/12/24 08:03:14;;;;;;;13.80;6.93;;;12.20;96.70;;;;;;4982203;28;20394;-73
2021/12/24 08:05:45;;;;;;;23.13;14.10;;;12.20;96.70;;;;;;5001186;28;20038;-73
2021/12/24 08:08:13;;;;;;;10.70;6.43;;;12.10;96.70;;;;;;4983895;28;20048;-73
2021/12/24 08:10:42;;;;;;;8.27;5.05;;;12.10;96.70;;;;;;4998677;28;20580;-73
2021/12/24 08:13:10;;;;;;;9.35;6.22;;;12.10;96.70;;;;;;4979372;28;20307;-74
2021/12/24 08:15:39;;;;;;;9.57;4.72;;;12.20;96.70;;;;;;4984073;28;20143;-74
2021/12/24 08:18:11;;;;;;;9.10;3.95;;;12.20;96.70;;;;;;4996095;28;20053;-75
2021/12/24 08:20:39;;;;;;;7.57;3.95;;;12.20;96.70;;;;;;4970306;28;20077;-75
2021/12/24 08:23:08;;;;;;;6.85;3.55;;;12.20;96.70;;;;;;4983197;28;20069;-74
2021/12/24 08:25:36;;;;;;;8.30;3.92;;;12.20;96.70;;;;;;5001508;28;20057;-74
2021/12/24 08:28:05;;;;;;;12.02;3.88;;;12.30;96.70;;;;;;4979662;28;20436;-75
2021/12/24 08:30:37;;;;;;;6.50;3.35;;;12.30;96.70;;;;;;4998656;28;20046;-74
2021/12/24 08:33:06;;;;;;;9.77;4.10;;;12.30;96.70;;;;;;4975224;28;20466;-74
2021/12/24 08:35:36;;;;;;;9.45;4.38;;;12.40;96.70;;;;;;4987229;28;20041;-74
2021/12/24 08:38:04;;;;;;;7.65;3.30;;;12.40;96.70;;;;;;4983079;28;20038;-73
2021/12/24 08:40:32;;;;;;;7.47;3.90;;;12.50;96.70;;;;;;4978168;28;20517;-75
2021/12/24 08:43:01;;;;;;;8.32;4.28;;;12.50;96.70;;;;;;4985332;28;20415;-74
2021/12/24 08:45:29;;;;;;;11.90;5.32;;;12.50;96.70;;;;;;5001809;28;20062;-74
2021/12/24 08:47:58;;;;;;;10.70;4.53;;;12.50;96.70;;;;;;4998519;28;20041;-74
2021/12/24 08:50:26;;;;;;;10.32;5.10;;;12.60;96.70;;;;;;5003576;28;20046;-74
2021/12/24 08:52:55;;;;;;;12.50;6.05;;;12.60;96.70;;;;;;4988489;28;20097;-75
2021/12/24 08:55:24;;;;;;;13.68;6.80;;;12.60;96.70;;;;;;4992009;28;20781;-75
2021/12/24 08:57:52;;;;;;;11.98;6.50;;;12.60;96.70;;;;;;4982899;28;20045;-74
2021/12/24 09:00:23;;;;;;;10.32;4.90;;;12.60;96.70;;;;;;4986357;28;20038;-73
2021/12/24 09:02:51;;;;;;;12.18;4.70;;;12.60;96.70;;;;;;4963769;28;20072;-74
2021/12/24 09:05:20;;;;;;;10.48;4.43;;;12.70;96.70;;;;;;4983097;28;20415;-74
2021/12/24 09:07:48;;;;;;;9.30;3.97;;;12.70;96.70;;;;;;5000879;28;20140;-74
2021/12/24 09:10:18;;;;;;;15.88;6.60;;;12.70;96.70;;;;;;4980058;28;20053;-75
2021/12/24 09:12:47;;;;;;;20.15;11.85;;;12.80;96.70;;;;;;4993782;28;20041;-73
2021/12/24 09:15:18;;;;;;;18.25;8.27;;;12.80;96.70;;;;;;4995299;28;20042;-73
2021/12/24 09:17:47;;;;;;;16.33;8.02;;;12.80;96.70;;;;;;4997156;28;20082;-73
2021/12/24 09:20:18;;;;;;;14.55;6.82;;;12.90;96.70;;;;;;4979196;28;20061;-77
2021/12/24 09:22:48;;;;;;;14.68;5.55;;;13.00;96.70;;;;;;5001583;28;20041;-73
2021/12/24 09:25:19;;;;;;;10.70;3.85;;;13.00;96.70;;;;;;4983965;28;20049;-73
2021/12/24 09:27:47;;;;;;;10.63;4.10;;;13.10;96.70;;;;;;4995085;28;20156;-73
2021/12/24 09:30:16;;;;;;;12.57;4.22;;;13.10;96.70;;;;;;4978915;28;20037;-74
2021/12/24 09:32:44;;;;;;;13.32;4.95;;;13.20;96.70;;;;;;4981531;28;20045;-75
2021/12/24 09:35:13;;;;;;;9.48;5.47;;;13.20;96.70;;;;;;4980795;28;20053;-74
2021/12/24 09:37:42;;;;;;;15.05;5.93;;;13.30;96.70;;;;;;4993538;28;20033;-74
2021/12/24 09:40:13;;;;;;;16.40;8.50;;;13.30;96.70;;;;;;5001489;28;20120;-74
2021/12/24 09:42:42;;;;;;;18.23;10.45;;;13.30;96.70;;;;;;4983361;28;20065;-74
2021/12/24 09:45:11;;;;;;;22.48;11.80;;;13.40;96.70;;;;;;4978069;28;20042;-75
2021/12/24 09:47:41;;;;;;;18.02;9.55;;;13.40;96.70;;;;;;4977708;28;20228;-75
2021/12/24 09:50:13;;;;;;;18.17;9.32;;;13.50;96.70;;;;;;4985215;28;20128;-75
2021/12/24 09:52:44;;;;;;;13.07;5.72;;;13.60;96.70;;;;;;4979176;28;20047;-75
2021/12/24 09:55:16;;;;;;;13.13;7.85;;;13.60;96.70;;;;;;4995446;28;20048;-75
2021/12/24 09:57:48;;;;;;;12.48;6.78;;;13.60;96.70;;;;;;4977636;28;20077;-75
2021/12/24 10:00:19;;;;;;;12.13;4.70;;;13.70;96.70;;;;;;4982050;28;20148;-75
2021/12/24 10:02:52;;;;;;;9.43;3.90;;;13.80;96.70;;;;;;4993865;28;20058;-74
2021/12/24 10:05:36;;;;;;;11.73;4.40;;;14.00;96.70;;;;;;4994988;28;20095;-75
2021/12/24 10:08:08;;;;;;;16.73;5.05;;;14.30;96.70;;;;;;4966220;28;20199;-74
2021/12/24 10:10:41;;;;;;;9.93;3.90;;;14.40;96.70;;;;;;4978411;28;20150;-73
2021/12/24 10:13:34;;;;;;;9.00;4.55;;;14.50;96.70;;;;;;4979768;28;20064;-73
2021/12/24 10:16:06;;;;;;;13.52;4.10;;;14.60;96.70;;;;;;4977631;28;20054;-74
2021/12/24 10:18:38;;;;;;;13.63;3.97;;;14.60;96.70;;;;;;4981556;28;20169;-73
2021/12/24 10:21:12;;;;;;;11.18;5.13;;;14.70;96.70;;;;;;4974803;28;20127;-74
2021/12/24 10:23:44;;;;;;;;;;;14.90;96.70;;;;;;4975555;28;20532;-74
2021/12/24 10:26:15;;;;;;;12.93;4.95;;;15.00;96.70;;;;;;4992367;28;19929;-75
2021/12/24 10:29:13;;;;;;;18.70;6.60;;;15.00;96.70;;;;;;4982278;28;20136;-74
2021/12/24 10:31:45;;;;;;;11.40;6.72;;;15.10;96.70;;;;;;4945575;28;20135;-74
2021/12/24 10:34:20;;;;;;;13.55;6.93;;;15.10;96.70;;;;;;4994813;28;20166;-74
2021/12/24 10:37:03;;;;;;;11.82;4.25;;;15.00;96.70;;;;;;4992867;28;20441;-74
2021/12/24 10:39:37;;;;;;;8.05;3.80;;;15.00;96.70;;;;;;4992825;28;20594;-74
2021/12/24 10:42:09;;;;;;;11.20;4.30;;;14.90;96.70;;;;;;4981399;28;20225;-74
2021/12/24 10:44:40;;;;;;;8.45;4.25;;;15.00;96.70;;;;;;4995752;28;20491;-74
2021/12/24 10:47:15;;;;;;;14.20;3.97;;;15.00;96.70;;;;;;4992791;28;20307;-76
2021/12/24 10:50:05;;;;;;;16.58;4.75;;;15.00;96.70;;;;;;4997411;28;20081;-75
2021/12/24 10:53:10;;;;;;;11.75;5.40;;;15.00;96.70;;;;;;4975636;28;20467;-75
2021/12/24 10:55:34;;;;;;;13.98;5.80;;;14.90;96.70;;;;;;4997517;28;20054;-74
2021/12/24 10:58:05;;;;;;;13.40;6.18;;;14.90;96.70;;;;;;4980326;28;20052;-74
2021/12/24 11:00:38;;;;;;;15.50;5.43;;;14.80;96.70;;;;;;4998442;28;20129;-74
2021/12/24 11:03:09;;;;;;;16.33;7.40;;;14.80;96.70;;;;;;4985792;28;20086;-76
2021/12/24 11:05:39;;;;;;;13.40;5.85;;;14.80;96.70;;;;;;4993782;28;20393;-75
2021/12/24 11:08:10;;;;;;;13.75;5.35;;;14.80;96.70;;;;;;5000857;28;20104;-75
2021/12/24 11:10:40;;;;;;;10.38;4.13;;;14.80;96.70;;;;;;4983949;28;20046;-75
2021/12/24 11:13:12;;;;;;;9.95;4.40;;;14.80;96.70;;;;;;4984619;28;20049;-75
2021/12/24 11:15:45;;;;;;;11.38;4.85;;;14.90;96.70;;;;;;4976713;28;20053;-75
2021/12/24 11:18:17;;;;;;;16.10;7.93;;;14.90;96.70;;;;;;4966752;28;20157;-75
2021/12/24 11:20:49;;;;;;;15.05;6.22;;;14.90;96.70;;;;;;5000403;28;20322;-76
2021/12/24 11:23:19;;;;;;;15.93;5.57;;;15.00;96.70;;;;;;4981508;28;20133;-74
2021/12/24 11:25:49;;;;;;;8.38;4.32;;;15.00;96.70;;;;;;4999610;28;20030;-75
2021/12/24 11:28:18;;;;;;;10.50;4.22;;;15.10;96.70;;;;;;4991834;28;20050;-75
2021/12/24 11:30:50;;;;;;;13.85;5.75;;;15.10;96.70;;;;;;4999739;28;20053;-74
2021/12/24 11:33:20;;;;;;;12.82;5.47;;;15.00;96.70;;;;;;5003369;28;20069;-74
2021/12/24 11:35:49;;;;;;;11.98;5.25;;;15.00;96.70;;;;;;4984287;28;20537;-76
2021/12/24 11:38:19;;;;;;;16.83;5.72;;;15.00;96.70;;;;;;4974264;28;20049;-75
2021/12/24 11:40:51;;;;;;;10.02;4.47;;;14.90;96.70;;;;;;5002126;28;20052;-76
2021/12/24 11:43:20;;;;;;;8.30;3.50;;;14.90;96.70;;;;;;4998656;28;20041;-77
2021/12/24 11:45:50;;;;;;;5.60;3.15;;;14.90;96.70;;;;;;4999059;28;20046;-76
2021/12/24 11:48:18;;;;;;;10.35;3.13;;;14.90;96.70;;;;;;4987698;28;20042;-75
2021/12/24 11:50:46;;;;;;;9.10;3.17;;;14.90;96.70;;;;;;4987078;28;20037;-74
2021/12/24 11:53:17;;;;;;;8.35;3.13;;;14.80;96.70;;;;;;4976114;28;20042;-75
2021/12/24 11:55:48;;;;;;;11.73;3.53;;;14.80;96.70;;;;;;4985828;28;20136;-74
2021/12/24 11:58:19;;;;;;;11.80;4.28;;;14.80;96.70;;;;;;4986056;28;20049;-74
2021/12/24 12:00:50;;;;;;;14.90;4.25;;;14.80;96.70;;;;;;4994826;28;20113;-76
2021/12/24 12:03:32;;;;;;;16.42;3.70;;;14.80;96.70;;;;;;4998714;28;20062;-75
2021/12/24 12:06:00;;;;;;;9.18;3.20;;;14.80;96.70;;;;;;4986787;28;20049;-76
2021/12/24 12:08:40;;;;;;;12.05;3.85;;;14.80;96.70;;;;;;4975204;28;20073;-74
2021/12/24 12:11:20;;;;;;;8.93;3.03;;;14.80;96.70;;;;;;4981142;28;20048;-74
2021/12/24 12:13:55;;;;;;;8.82;3.17;;;14.70;96.70;;;;;;4976839;28;20100;-75
2021/12/24 12:16:27;;;;;;;15.45;4.00;;;14.70;96.70;;;;;;5000690;28;20447;-74
2021/12/24 12:19:14;;;;;;;13.68;4.10;;;14.70;96.70;;;;;;4996372;28;20125;-75
2021/12/24 12:24:57;;;;;;;6.90;3.20;;;14.70;96.70;;;;;;4944159;28;20156;-76
2021/12/24 12:27:39;;;;;;;11.98;3.28;;;14.70;96.70;;;;;;4946815;28;21801;-76
2021/12/24 12:30:28;;;;;;;9.35;3.53;;;14.60;96.70;;;;;;4975340;28;20088;-76
2021/12/24 12:33:08;;;;;;;10.55;4.15;;;14.60;96.70;;;;;;4953600;28;20423;-77
2021/12/24 12:35:46;;;;;;;10.70;4.35;;;14.60;96.70;;;;;;4967895;28;20052;-77
2021/12/24 12:38:34;;;;;;;13.15;4.97;;;14.60;96.70;;;;;;4944988;28;20165;-77
2021/12/24 12:41:31;;;;;;;11.43;4.68;;;14.60;96.70;;;;;;4942838;28;20064;-76
2021/12/24 12:44:02;;;;;;;12.38;4.80;;;14.50;96.70;;;;;;4938930;28;20050;-76
2021/12/24 12:46:33;;;;;;;10.80;3.75;;;14.50;96.70;;;;;;4972745;28;20069;-76
2021/12/24 12:49:04;;;;;;;10.63;3.40;;;14.40;96.70;;;;;;4953474;28;21311;-76
2021/12/24 12:51:53;;;;;;;6.85;2.63;;;14.10;96.70;;;;;;4950257;28;20049;-76
2021/12/24 12:54:39;;;;;;;7.63;2.60;;;13.90;96.70;;;;;;4958220;28;20439;-77
2021/12/24 12:57:22;;;;;;;10.75;3.03;;;13.70;96.70;;;;;;4956758;28;20054;-77
2021/12/24 13:00:23;;;;;;;9.65;2.78;;;13.60;96.70;;;;;;4967184;28;20061;-76
2021/12/24 13:03:06;;;;;;;11.45;3.55;;;13.40;96.70;;;;;;4956487;28;20724;-77
2021/12/24 13:06:08;;;;;;;8.25;3.35;;;13.30;96.70;;;;;;4948553;28;20042;-78
2021/12/24 13:08:40;;;;;;;5.93;3.20;;;13.30;96.70;;;;;;4949918;28;20152;-79
2021/12/24 13:11:14;;;;;;;6.82;3.53;;;13.20;96.70;;;;;;4952313;28;20049;-76
2021/12/24 13:14:00;;;;;;;8.60;3.40;;;13.20;96.70;;;;;;4931682;28;20053;-75
2021/12/24 13:16:34;;;;;;;10.98;3.60;;;13.20;96.70;;;;;;4931308;28;20082;-75
2021/12/24 13:19:23;;;;;;;11.30;3.95;;;13.20;96.70;;;;;;4932170;28;20038;-75
2021/12/24 13:24:46;;;;;;;38.78;26.75;;;13.20;96.70;;;;;;4944221;28;20050;-75
2021/12/24 13:27:15;;;;;;;12.35;6.05;;;13.20;96.70;;;;;;4942962;28;20371;-74
2021/12/24 13:29:43;;;;;;;11.02;5.00;;;13.20;96.70;;;;;;4942013;28;20042;-76
2021/12/24 13:32:12;;;;;;;12.30;4.78;;;13.20;96.70;;;;;;4942028;28;20089;-76
2021/12/24 13:34:42;;;;;;;9.48;5.90;;;13.20;96.70;;;;;;4926719;28;20497;-75
2021/12/24 13:37:12;;;;;;;13.50;5.32;;;13.20;96.70;;;;;;4934606;28;20374;-75
2021/12/24 13:39:51;;;;;;;10.60;5.00;;;13.30;96.70;;;;;;4937139;28;20137;-76
2021/12/24 13:42:20;;;;;;;14.75;6.50;;;13.30;96.70;;;;;;4946291;28;20117;-75
2021/12/24 13:44:49;;;;;;;14.07;5.25;;;13.30;96.70;;;;;;4951467;28;20158;-75
2021/12/24 13:55:26;;;;;;;11.93;7.60;;;13.30;96.70;;;;;;4925912;28;20031;-76
2021/12/24 13:57:56;;;;;;;12.32;6.00;;;13.30;96.70;;;;;;4941451;28;20050;-74
2021/12/24 14:00:25;;;;;;;15.73;8.93;;;13.30;96.70;;;;;;4938718;28;20050;-79
2021/12/24 14:03:00;;;;;;;16.88;10.77;;;13.40;96.70;;;;;;4954869;28;20449;-76
2021/12/24 14:05:28;;;;;;;10.82;6.93;;;13.40;96.70;;;;;;4939557;28;21428;-77
2021/12/24 14:08:06;;;;;;;11.00;6.30;;;13.40;96.70;;;;;;4941064;28;20057;-78
2021/12/24 14:10:36;;;;;;;14.05;6.82;;;13.40;96.70;;;;;;4944332;28;20073;-75
2021/12/24 14:13:09;;;;;;;14.68;5.55;;;13.40;96.70;;;;;;4966412;28;20050;-76
2021/12/24 14:18:43;;;;;;;9.82;4.78;;;13.50;96.70;;;;;;4948158;28;20095;-75
2021/12/24 14:24:12;;;;;;;94.03;78.53;;;13.60;96.70;;;;;;4970480;28;20561;-76
2021/12/24 14:26:43;;;;;;;17.80;7.70;;;13.60;96.70;;;;;;4977626;28;20053;-74
2021/12/24 14:29:12;;;;;;;20.30;10.43;;;13.60;96.70;;;;;;4979071;28;20429;-74
2021/12/24 14:31:52;;;;;;;12.82;6.75;;;13.60;96.70;;;;;;4970851;28;20125;-74
2021/12/24 14:34:37;;;;;;;16.27;7.47;;;13.60;96.70;;;;;;4990613;28;20128;-74
2021/12/24 14:37:08;;;;;;;14.25;7.22;;;13.70;96.70;;;;;;4979336;28;20404;-74
2021/12/24 14:39:43;;;;;;;16.00;9.60;;;13.70;96.70;;;;;;4979821;28;20165;-74
2021/12/24 14:42:21;;;;;;;16.83;8.57;;;13.70;96.70;;;;;;4961707;28;20042;-73
2021/12/24 14:44:52;;;;;;;11.23;6.63;;;13.70;96.70;;;;;;4973258;28;20050;-74
2021/12/24 14:47:25;;;;;;;11.55;5.15;;;13.70;96.70;;;;;;4976476;28;20535;-74
2021/12/24 14:50:02;;;;;;;10.00;5.82;;;13.70;96.70;;;;;;4979957;28;20524;-75
2021/12/24 14:52:31;;;;;;;14.65;6.00;;;13.70;96.70;;;;;;4967967;28;20048;-75
2021/12/24 14:55:11;;;;;;;17.17;8.57;;;13.70;96.70;;;;;;4933811;28;21252;-76
2021/12/24 14:57:56;;;;;;;11.13;5.15;;;13.70;96.70;;;;;;4947130;28;20077;-76
2021/12/24 15:00:28;;;;;;;13.55;6.90;;;13.70;96.70;;;;;;4954760;28;20046;-75
2021/12/24 15:02:57;;;;;;;12.02;6.72;;;13.70;96.70;;;;;;4950622;28;20050;-76
2021/12/24 15:05:32;;;;;;;21.95;9.48;;;13.70;96.70;;;;;;4966705;28;20596;-76